createdAt,value
2023-05-05T00:00:52.764Z,1.95
2023-05-05T00:03:23.445Z,1.23
2023-05-05T00:05:51.204Z,1.88
2023-05-05T00:08:18.928Z,1.17
2023-05-05T00:10:46.779Z,1.23
2023-05-05T00:13:14.734Z,3.15
2023-05-05T00:15:42.965Z,1.80
2023-05-05T00:18:10.781Z,2.08
2023-05-05T00:20:39.157Z,2.53
2023-05-05T00:23:07.063Z,2.20
2023-05-05T00:25:34.737Z,2.30
2023-05-05T00:28:02.365Z,1.87
2023-05-05T00:30:30.205Z,1.83
2023-05-05T00:32:57.763Z,1.80
2023-05-05T00:35:25.458Z,2.00
2023-05-05T00:37:53.276Z,2.05
2023-05-05T00:40:20.779Z,1.73
2023-05-05T00:42:50.939Z,1.98
2023-05-05T00:45:21.615Z,2.20
2023-05-05T00:47:50.090Z,1.98
2023-05-05T00:50:24.811Z,2.00
2023-05-05T00:52:53.726Z,2.10
2023-05-05T00:55:21.822Z,1.67
2023-05-05T00:57:49.949Z,2.47
2023-05-05T01:00:18.124Z,1.97
2023-05-05T01:02:45.882Z,1.83
2023-05-05T01:05:13.850Z,1.77
2023-05-05T01:07:44.229Z,2.17
2023-05-05T01:10:20.982Z,2.57
2023-05-05T01:12:51.618Z,2.65
2023-05-05T01:15:28.096Z,2.03
2023-05-05T01:18:10.819Z,1.50
2023-05-05T01:20:54.278Z,2.05
2023-05-05T01:23:31.414Z,1.20
2023-05-05T01:26:08.379Z,1.40
2023-05-05T01:28:36.017Z,2.15
2023-05-05T01:31:22.131Z,1.95
2023-05-05T01:33:54.080Z,1.20
2023-05-05T01:36:23.304Z,1.00
2023-05-05T01:38:52.802Z,1.05
2023-05-05T01:41:21.203Z,1.70
2023-05-05T01:43:50.058Z,1.80
2023-05-05T01:46:17.620Z,1.33
2023-05-05T01:48:45.375Z,1.67
2023-05-05T01:51:12.881Z,1.47
2023-05-05T01:53:40.436Z,1.33
2023-05-05T01:56:08.067Z,1.70
2023-05-05T01:58:35.675Z,1.70
2023-05-05T02:01:03.227Z,1.47
2023-05-05T02:03:31.576Z,1.63
2023-05-05T02:05:59.156Z,1.50
2023-05-05T02:08:26.883Z,1.20
2023-05-05T02:10:54.496Z,1.00
2023-05-05T02:13:22.288Z,1.30
2023-05-05T02:15:49.849Z,1.10
2023-05-05T02:18:17.477Z,2.00
2023-05-05T02:20:45.040Z,1.10
2023-05-05T02:23:12.616Z,1.50
2023-05-05T02:25:41.281Z,1.83
2023-05-05T02:28:22.629Z,1.08
2023-05-05T02:30:52.487Z,1.35
2023-05-05T02:33:21.081Z,1.83
2023-05-05T02:35:48.599Z,1.20
2023-05-05T02:38:20.500Z,1.58
2023-05-05T02:40:48.023Z,1.40
2023-05-05T02:43:16.543Z,1.45
2023-05-05T02:45:44.063Z,0.93
2023-05-05T02:48:13.125Z,1.58
2023-05-05T02:50:40.825Z,1.63
2023-05-05T02:53:08.392Z,0.73
2023-05-05T02:55:44.363Z,1.33
2023-05-05T02:58:16.298Z,1.30
2023-05-05T03:01:10.055Z,1.00
2023-05-05T03:03:41.091Z,1.10
2023-05-05T03:06:08.733Z,1.20
2023-05-05T03:08:48.904Z,1.20
2023-05-05T03:11:23.499Z,1.45
2023-05-05T03:13:57.015Z,1.20
2023-05-05T03:16:24.520Z,2.30
2023-05-05T03:18:53.219Z,0.73
2023-05-05T03:21:20.726Z,0.95
2023-05-05T03:23:48.435Z,1.83
2023-05-05T03:26:18.378Z,1.85
2023-05-05T03:28:46.192Z,1.58
2023-05-05T03:31:13.776Z,1.27
2023-05-05T03:33:41.501Z,1.77
2023-05-05T03:36:09.045Z,2.00
2023-05-05T03:38:36.715Z,2.10
2023-05-05T03:41:04.500Z,3.07
2023-05-05T03:43:32.229Z,2.30
2023-05-05T03:45:59.811Z,2.33
2023-05-05T03:48:27.510Z,2.60
2023-05-05T03:50:55.048Z,2.10
2023-05-05T03:53:22.704Z,2.20
2023-05-05T03:55:50.359Z,1.90
2023-05-05T03:58:17.989Z,2.38
2023-05-05T04:00:45.639Z,3.10
2023-05-05T04:03:13.416Z,2.45
2023-05-05T04:05:41.119Z,2.17
2023-05-05T04:08:08.751Z,2.28
2023-05-05T04:10:36.372Z,2.08
2023-05-05T04:13:04.535Z,1.90
2023-05-05T04:15:32.279Z,2.15
2023-05-05T04:17:59.952Z,2.35
2023-05-05T04:20:27.533Z,1.87
2023-05-05T04:22:55.144Z,2.45
2023-05-05T04:25:22.691Z,2.55
2023-05-05T04:27:50.383Z,2.55
2023-05-05T04:30:17.990Z,2.03
2023-05-05T04:32:45.797Z,2.47
2023-05-05T04:35:13.321Z,2.63
2023-05-05T04:37:40.992Z,2.17
2023-05-05T04:40:09.304Z,1.90
2023-05-05T04:42:37.759Z,2.15
2023-05-05T04:45:05.671Z,2.30
2023-05-05T04:47:33.342Z,2.40
2023-05-05T04:50:01.143Z,2.35
2023-05-05T04:52:28.700Z,2.30
2023-05-05T04:54:56.332Z,2.30
2023-05-05T04:57:23.894Z,1.55
2023-05-05T04:59:51.533Z,1.67
2023-05-05T05:02:19.197Z,1.47
2023-05-05T05:04:46.958Z,2.30
2023-05-05T05:07:17.760Z,1.90
2023-05-05T05:09:45.961Z,2.23
2023-05-05T05:12:13.540Z,1.35
2023-05-05T05:14:41.079Z,1.15
2023-05-05T05:17:08.677Z,1.67
2023-05-05T05:19:36.325Z,1.37
2023-05-05T05:22:03.968Z,1.23
2023-05-05T05:24:32.539Z,1.30
2023-05-05T05:27:00.172Z,1.20
2023-05-05T05:29:27.694Z,2.30
2023-05-05T05:31:55.384Z,1.75
2023-05-05T05:34:22.952Z,1.53
2023-05-05T05:36:53.764Z,1.80
2023-05-05T05:39:22.021Z,1.20
2023-05-05T05:41:49.526Z,2.08
2023-05-05T05:44:17.095Z,1.27
2023-05-05T05:46:44.710Z,2.78
2023-05-05T05:49:13.950Z,1.88
2023-05-05T05:51:41.450Z,2.50
2023-05-05T05:54:09.108Z,2.80
2023-05-05T05:56:36.699Z,2.53
2023-05-05T05:59:08.061Z,2.77
2023-05-05T06:01:35.820Z,2.55
2023-05-05T06:04:03.704Z,2.33
2023-05-05T06:06:31.681Z,1.67
2023-05-05T06:08:59.696Z,2.13
2023-05-05T06:11:27.431Z,2.47
2023-05-05T06:13:55.331Z,1.45
2023-05-05T06:16:23.044Z,2.07
2023-05-05T06:18:50.821Z,2.50
2023-05-05T06:21:21.448Z,2.63
2023-05-05T06:23:49.012Z,2.70
2023-05-05T06:26:17.033Z,3.00
2023-05-05T06:28:44.761Z,2.42
2023-05-05T06:31:13.079Z,2.33
2023-05-05T06:33:40.678Z,2.37
2023-05-05T06:36:08.454Z,2.65
2023-05-05T06:38:36.144Z,3.28
2023-05-05T06:41:03.734Z,3.43
2023-05-05T06:43:31.354Z,3.25
2023-05-05T06:45:58.899Z,3.30
2023-05-05T06:48:26.554Z,3.63
2023-05-05T06:50:54.041Z,3.30
2023-05-05T06:53:21.747Z,2.85
2023-05-05T06:55:49.387Z,2.28
2023-05-05T06:58:17.009Z,2.63
2023-05-05T07:00:44.591Z,2.15
2023-05-05T07:03:12.546Z,2.25
2023-05-05T07:05:40.190Z,2.93
2023-05-05T07:08:09.360Z,2.90
2023-05-05T07:10:37.262Z,3.03
2023-05-05T07:13:04.992Z,2.50
2023-05-05T07:15:32.687Z,3.00
2023-05-05T07:18:00.459Z,2.28
2023-05-05T07:20:29.192Z,2.85
2023-05-05T07:22:59.169Z,1.90
2023-05-05T07:25:26.849Z,2.53
2023-05-05T07:27:54.500Z,2.50
2023-05-05T07:30:22.278Z,2.83
2023-05-05T07:32:50.408Z,2.67
2023-05-05T07:35:18.099Z,2.50
2023-05-05T07:37:48.813Z,1.93
2023-05-05T07:40:16.380Z,2.67
2023-05-05T07:42:44.005Z,2.17
2023-05-05T07:45:11.857Z,1.48
2023-05-05T07:47:40.674Z,2.63
2023-05-05T07:50:08.856Z,2.75
2023-05-05T07:52:46.759Z,1.88
2023-05-05T07:55:19.261Z,2.20
2023-05-05T07:57:47.296Z,3.00
2023-05-05T08:00:15.238Z,1.88
2023-05-05T08:02:44.171Z,81.83
2023-05-05T08:05:12.757Z,30.73
2023-05-05T08:07:42.423Z,17.25
2023-05-05T08:10:12.176Z,3.28
2023-05-05T08:12:40.631Z,2.47
2023-05-05T08:15:08.962Z,2.35
2023-05-05T08:17:49.347Z,3.13
2023-05-05T08:20:17.498Z,3.80
2023-05-05T08:22:46.067Z,2.22
2023-05-05T08:25:13.873Z,3.08
2023-05-05T08:27:42.211Z,3.40
2023-05-05T08:30:10.148Z,3.30
2023-05-05T08:32:38.580Z,2.95
2023-05-05T08:35:07.064Z,3.38
2023-05-05T08:37:35.197Z,2.60
2023-05-05T08:40:02.800Z,3.10
2023-05-05T08:42:37.796Z,3.80
2023-05-05T08:45:07.688Z,3.70
2023-05-05T08:47:38.986Z,2.90
2023-05-05T08:50:07.035Z,3.70
2023-05-05T08:52:40.434Z,3.53
2023-05-05T08:55:10.901Z,3.80
2023-05-05T08:57:56.748Z,4.22
2023-05-05T09:00:24.563Z,4.10
2023-05-05T09:02:52.297Z,3.33
2023-05-05T09:05:20.034Z,3.92
2023-05-05T09:07:47.812Z,4.57
2023-05-05T09:10:15.577Z,3.17
2023-05-05T09:12:43.232Z,5.13
2023-05-05T09:15:15.268Z,4.53
2023-05-05T09:17:43.391Z,5.30
2023-05-05T09:20:11.814Z,4.85
2023-05-05T09:22:46.290Z,5.00
2023-05-05T09:25:14.645Z,4.63
2023-05-05T09:27:46.050Z,4.47
2023-05-05T09:30:17.633Z,5.25
2023-05-05T09:32:49.030Z,6.15
2023-05-05T09:35:16.950Z,5.53
2023-05-05T09:37:44.594Z,5.97
2023-05-05T09:40:13.419Z,5.50
2023-05-05T09:42:41.269Z,5.60
2023-05-05T09:45:20.940Z,5.35
2023-05-05T09:47:48.815Z,5.40
2023-05-05T09:50:21.062Z,6.00
2023-05-05T09:53:02.325Z,6.13
2023-05-05T09:55:31.593Z,6.03
2023-05-05T09:58:06.365Z,6.90
2023-05-05T10:00:40.255Z,6.40
2023-05-05T10:03:08.086Z,6.57
2023-05-05T10:05:36.001Z,6.95
2023-05-05T10:08:13.096Z,7.30
2023-05-05T10:11:01.050Z,6.53
2023-05-05T10:13:29.086Z,6.63
2023-05-05T10:15:57.345Z,6.40
2023-05-05T10:18:25.895Z,6.73
2023-05-05T10:20:59.266Z,7.30
2023-05-05T10:23:35.711Z,6.90
2023-05-05T10:26:09.218Z,7.40
2023-05-05T10:28:46.925Z,7.15
2023-05-05T10:31:25.164Z,7.20
2023-05-05T10:34:14.377Z,7.40
2023-05-05T10:36:42.277Z,7.30
2023-05-05T10:39:10.971Z,7.57
2023-05-05T10:41:39.007Z,8.23
2023-05-05T10:44:06.640Z,8.00
2023-05-05T10:46:34.278Z,7.18
2023-05-05T10:49:20.945Z,7.80
2023-05-05T10:52:01.203Z,7.13
2023-05-05T10:54:39.214Z,7.60
2023-05-05T10:57:08.319Z,8.32
2023-05-05T10:59:39.044Z,8.57
2023-05-05T11:02:25.312Z,7.70
2023-05-05T11:05:14.414Z,8.57
2023-05-05T11:07:42.618Z,8.13
2023-05-05T11:10:13.570Z,7.93
2023-05-05T11:13:02.531Z,7.57
2023-05-05T11:15:31.655Z,8.10
2023-05-05T11:18:00.235Z,8.10
2023-05-05T11:20:37.127Z,8.18
2023-05-05T11:23:05.406Z,9.10
2023-05-05T11:25:36.574Z,9.23
2023-05-05T11:28:06.081Z,8.80
2023-05-05T11:30:33.634Z,9.27
2023-05-05T11:33:19.724Z,9.52
2023-05-05T11:36:07.122Z,8.70
2023-05-05T11:38:38.195Z,9.02
2023-05-05T11:41:16.551Z,8.88
2023-05-05T11:43:44.115Z,9.30
2023-05-05T11:46:12.666Z,8.95
2023-05-05T11:48:49.918Z,8.70
2023-05-05T11:51:17.979Z,9.70
2023-05-05T11:53:46.104Z,11.55
2023-05-05T11:56:22.057Z,10.45
2023-05-05T11:58:50.019Z,10.13
2023-05-05T12:01:17.661Z,9.70
2023-05-05T12:03:45.873Z,15.57
2023-05-05T12:06:13.665Z,10.95
2023-05-05T12:08:41.780Z,15.07
2023-05-05T12:11:10.064Z,13.52
2023-05-05T12:13:37.670Z,12.13
2023-05-05T12:16:11.584Z,16.20
2023-05-05T12:18:39.532Z,12.73
2023-05-05T12:21:19.385Z,11.00
2023-05-05T12:23:47.071Z,12.38
2023-05-05T12:26:27.747Z,10.23
2023-05-05T12:28:55.909Z,10.27
2023-05-05T12:31:23.557Z,10.50
2023-05-05T12:33:51.164Z,11.03
2023-05-05T12:36:18.756Z,9.05
2023-05-05T12:38:46.513Z,8.95
2023-05-05T12:41:18.834Z,9.80
2023-05-05T12:43:48.038Z,9.90
2023-05-05T12:46:15.843Z,9.43
2023-05-05T12:48:47.250Z,8.98
2023-05-05T12:51:20.096Z,9.10
2023-05-05T12:53:48.209Z,8.70
2023-05-05T12:56:34.670Z,7.93
2023-05-05T12:59:03.256Z,8.40
2023-05-05T13:01:31.228Z,8.52
2023-05-05T13:04:24.964Z,8.90
2023-05-05T13:07:11.634Z,9.57
2023-05-05T13:09:39.387Z,9.15
2023-05-05T13:12:08.768Z,9.32
2023-05-05T13:14:36.690Z,9.07
2023-05-05T13:17:05.846Z,9.10
2023-05-05T13:19:35.714Z,9.40
2023-05-05T13:22:03.354Z,8.85
2023-05-05T13:24:42.786Z,8.17
2023-05-05T13:27:18.133Z,8.77
2023-05-05T13:29:46.111Z,8.88
2023-05-05T13:32:13.892Z,9.80
2023-05-05T13:34:42.622Z,9.90
2023-05-05T13:37:10.401Z,9.80
2023-05-05T13:39:37.978Z,10.30
2023-05-05T13:42:05.641Z,10.93
2023-05-05T13:44:33.160Z,10.52
2023-05-05T13:47:01.942Z,10.70
2023-05-05T13:49:29.550Z,10.13
2023-05-05T13:51:57.570Z,10.13
2023-05-05T13:54:25.298Z,9.63
2023-05-05T13:56:52.992Z,9.93
2023-05-05T13:59:20.598Z,9.73
2023-05-05T14:01:48.098Z,10.55
2023-05-05T14:04:15.924Z,10.18
2023-05-05T14:06:43.761Z,10.40
2023-05-05T14:09:11.430Z,10.43
2023-05-05T14:11:38.931Z,9.85
2023-05-05T14:14:07.035Z,9.13
2023-05-05T14:16:34.855Z,8.70
2023-05-05T14:19:02.626Z,7.78
2023-05-05T14:21:30.163Z,8.27
2023-05-05T14:23:57.811Z,8.13
2023-05-05T14:26:25.899Z,8.05
2023-05-05T14:28:53.645Z,8.55
2023-05-05T14:31:21.304Z,8.80
2023-05-05T14:33:49.013Z,10.05
2023-05-05T14:36:16.702Z,9.73
2023-05-05T14:38:44.483Z,11.37
2023-05-05T14:41:12.127Z,11.43
2023-05-05T14:43:39.784Z,11.20
2023-05-05T14:46:10.528Z,9.85
2023-05-05T14:48:38.284Z,8.57
2023-05-05T14:51:06.181Z,8.40
2023-05-05T14:53:33.790Z,8.32
2023-05-05T14:56:02.477Z,8.30
2023-05-05T14:58:31.170Z,7.97
2023-05-05T15:00:59.085Z,7.95
2023-05-05T15:03:27.129Z,8.63
2023-05-05T15:05:54.801Z,8.70
2023-05-05T15:08:22.519Z,9.13
2023-05-05T15:10:50.217Z,8.83
2023-05-05T15:13:18.693Z,8.18
2023-05-05T15:15:46.442Z,8.93
2023-05-05T15:18:14.299Z,8.95
2023-05-05T15:20:41.912Z,8.27
2023-05-05T15:23:09.560Z,9.15
2023-05-05T15:25:37.138Z,9.02
2023-05-05T15:28:06.234Z,9.50
2023-05-05T15:30:33.882Z,10.75
2023-05-05T15:33:01.537Z,9.68
2023-05-05T15:35:29.162Z,9.85
2023-05-05T15:37:57.357Z,9.95
2023-05-05T15:40:24.895Z,9.40
2023-05-05T15:42:52.621Z,9.45
2023-05-05T15:45:20.203Z,15.47
2023-05-05T15:47:48.197Z,9.82
2023-05-05T15:50:16.234Z,9.77
2023-05-05T15:52:43.845Z,9.17
2023-05-05T15:55:12.038Z,9.88
2023-05-05T15:57:40.503Z,9.65
2023-05-05T16:00:08.668Z,9.50
2023-05-05T16:02:36.483Z,9.52
2023-05-05T16:05:04.898Z,10.65
2023-05-05T16:07:32.504Z,9.07
2023-05-05T16:10:00.151Z,12.20
2023-05-05T16:12:27.938Z,10.70
2023-05-05T16:14:55.884Z,9.82
2023-05-05T16:17:23.668Z,10.17
2023-05-05T16:19:53.859Z,9.90
2023-05-05T16:22:21.441Z,17.15
2023-05-05T16:24:49.003Z,13.20
2023-05-05T16:27:16.744Z,9.77
2023-05-05T16:29:45.452Z,12.18
2023-05-05T16:32:13.157Z,10.13
2023-05-05T16:34:40.776Z,12.50
2023-05-05T16:37:08.438Z,11.60
2023-05-05T16:39:40.313Z,10.75
2023-05-05T16:42:08.009Z,10.63
2023-05-05T16:44:35.694Z,11.27
2023-05-05T16:47:03.437Z,11.25
2023-05-05T16:49:31.036Z,11.80
2023-05-05T16:51:58.656Z,11.68
2023-05-05T16:54:26.178Z,13.57
2023-05-05T16:56:53.880Z,15.05
2023-05-05T16:59:21.392Z,13.20
2023-05-05T17:01:49.022Z,15.30
2023-05-05T17:04:17.055Z,15.77
2023-05-05T17:06:44.637Z,15.60
2023-05-05T17:09:12.356Z,15.07
2023-05-05T17:11:39.873Z,14.57
2023-05-05T17:14:07.489Z,14.52
2023-05-05T17:16:35.172Z,14.45
2023-05-05T17:19:02.821Z,16.77
2023-05-05T17:21:30.637Z,14.20
2023-05-05T17:23:58.126Z,13.83
2023-05-05T17:26:25.764Z,16.27
2023-05-05T17:28:54.367Z,16.50
2023-05-05T17:31:22.231Z,14.57
2023-05-05T17:33:50.179Z,14.80
2023-05-05T17:36:17.773Z,14.50
2023-05-05T17:38:45.412Z,14.07
2023-05-05T17:41:12.982Z,15.32
2023-05-05T17:43:41.071Z,13.85
2023-05-05T17:46:08.676Z,15.40
2023-05-05T17:48:36.345Z,13.40
2023-05-05T17:51:03.965Z,14.40
2023-05-05T17:53:31.732Z,13.40
2023-05-05T17:55:59.349Z,12.70
2023-05-05T17:58:27.453Z,12.52
2023-05-05T18:00:56.334Z,12.50
2023-05-05T18:03:23.962Z,12.20
2023-05-05T18:05:51.575Z,12.45
2023-05-05T18:08:19.650Z,11.65
2023-05-05T18:10:47.214Z,12.70
2023-05-05T18:13:14.817Z,11.93
2023-05-05T18:15:42.582Z,12.95
2023-05-05T18:18:10.971Z,11.98
2023-05-05T18:20:38.597Z,11.67
2023-05-05T18:23:06.130Z,12.60
2023-05-05T18:25:33.625Z,12.60
2023-05-05T18:28:01.742Z,12.77
2023-05-05T18:30:29.338Z,12.73
2023-05-05T18:32:58.171Z,11.93
2023-05-05T18:35:26.134Z,13.23
2023-05-05T18:37:55.135Z,12.60
2023-05-05T18:40:23.149Z,12.90
2023-05-05T18:42:51.403Z,12.35
2023-05-05T18:45:18.997Z,12.63
2023-05-05T18:47:46.761Z,12.82
2023-05-05T18:50:14.523Z,12.43
2023-05-05T18:52:42.122Z,13.13
2023-05-05T18:55:10.058Z,12.55
2023-05-05T18:57:38.153Z,13.05
2023-05-05T19:00:05.932Z,10.55
2023-05-05T19:02:33.589Z,12.37
2023-05-05T19:05:01.299Z,11.70
2023-05-05T19:07:35.477Z,10.82
2023-05-05T19:10:04.847Z,11.73
2023-05-05T19:12:32.754Z,11.10
2023-05-05T19:15:00.528Z,11.73
2023-05-05T19:17:28.285Z,12.10
2023-05-05T19:19:55.916Z,10.90
2023-05-05T19:22:25.331Z,12.82
2023-05-05T19:24:53.035Z,17.00
2023-05-05T19:27:21.602Z,13.47
2023-05-05T19:29:53.259Z,12.93
2023-05-05T19:32:23.634Z,12.68
2023-05-05T19:34:54.380Z,18.47
2023-05-05T19:37:22.137Z,17.58
2023-05-05T19:39:49.804Z,14.80
2023-05-05T19:42:18.032Z,12.67
2023-05-05T19:44:45.561Z,13.93
2023-05-05T19:47:13.314Z,14.02
2023-05-05T19:49:40.862Z,15.32
2023-05-05T19:52:08.433Z,13.30
2023-05-05T19:54:36.261Z,14.82
2023-05-05T19:57:04.026Z,13.10
2023-05-05T19:59:31.781Z,12.80
2023-05-05T20:01:59.640Z,12.30
2023-05-05T20:04:27.291Z,9.90
2023-05-05T20:06:54.857Z,8.33
2023-05-05T20:09:22.345Z,10.32
2023-05-05T20:11:49.917Z,9.32
2023-05-05T20:14:17.475Z,9.68
2023-05-05T20:16:45.334Z,9.70
2023-05-05T20:19:12.974Z,10.88
2023-05-05T20:21:41.161Z,10.48
2023-05-05T20:24:09.033Z,9.97
2023-05-05T20:26:36.755Z,8.65
2023-05-05T20:29:04.498Z,7.13
2023-05-05T20:31:32.050Z,8.20
2023-05-05T20:33:59.698Z,8.23
2023-05-05T20:36:27.747Z,7.75
2023-05-05T20:38:55.588Z,6.78
2023-05-05T20:41:23.150Z,7.00
2023-05-05T20:43:50.664Z,7.30
2023-05-05T20:46:18.274Z,6.53
2023-05-05T20:48:45.968Z,5.53
2023-05-05T20:51:14.904Z,7.10
2023-05-05T20:53:42.418Z,8.70
2023-05-05T20:56:10.052Z,10.00
2023-05-05T20:58:37.685Z,9.75
2023-05-05T21:01:05.548Z,10.93
2023-05-05T21:03:33.070Z,11.05
2023-05-05T21:06:00.696Z,11.57
2023-05-05T21:08:28.336Z,11.93
2023-05-05T21:10:55.880Z,12.93
2023-05-05T21:13:23.530Z,13.57
2023-05-05T21:15:51.078Z,13.70
2023-05-05T21:18:18.784Z,14.68
2023-05-05T21:20:46.300Z,15.27
2023-05-05T21:23:14.132Z,15.57
2023-05-05T21:25:41.740Z,15.02
2023-05-05T21:28:09.422Z,14.00
2023-05-05T21:30:38.110Z,12.83
2023-05-05T21:33:05.912Z,13.00
2023-05-05T21:35:33.430Z,13.38
2023-05-05T21:38:01.489Z,11.67
2023-05-05T21:40:29.050Z,12.52
2023-05-05T21:42:56.635Z,13.18
2023-05-05T21:45:24.186Z,12.40
2023-05-05T21:47:51.809Z,12.48
2023-05-05T21:50:19.661Z,12.38
2023-05-05T21:52:47.213Z,12.15
2023-05-05T21:55:14.787Z,12.37
2023-05-05T21:57:42.439Z,13.05
2023-05-05T22:00:10.587Z,13.30
2023-05-05T22:02:41.444Z,13.97
2023-05-05T22:05:09.438Z,13.07
2023-05-05T22:07:37.147Z,13.80
2023-05-05T22:10:04.735Z,13.43
2023-05-05T22:12:32.283Z,13.07
2023-05-05T22:14:59.819Z,13.00
2023-05-05T22:17:27.473Z,14.00
2023-05-05T22:19:57.324Z,13.80
2023-05-05T22:22:24.954Z,13.73
2023-05-05T22:24:52.577Z,13.75
2023-05-05T22:27:20.233Z,13.60
2023-05-05T22:29:47.772Z,12.52
2023-05-05T22:32:15.314Z,13.43
2023-05-05T22:34:42.980Z,13.73
2023-05-05T22:37:10.689Z,13.13
2023-05-05T22:39:38.271Z,12.50
2023-05-05T22:42:05.937Z,12.77
2023-05-05T22:44:33.477Z,12.20
2023-05-05T22:47:01.215Z,12.18
2023-05-05T22:49:29.024Z,11.98
2023-05-05T22:51:57.305Z,12.27
2023-05-05T22:54:24.971Z,12.18
2023-05-05T22:56:53.768Z,12.43
2023-05-05T22:59:21.338Z,11.87
2023-05-05T23:01:48.888Z,12.20
2023-05-05T23:04:16.488Z,11.15
2023-05-05T23:06:45.006Z,12.20
2023-05-05T23:09:12.909Z,11.73
2023-05-05T23:11:40.543Z,12.35
2023-05-05T23:14:08.064Z,12.50
2023-05-05T23:16:35.609Z,11.80
2023-05-05T23:19:03.284Z,11.60
2023-05-05T23:21:33.962Z,11.73
2023-05-05T23:24:03.883Z,11.87
2023-05-05T23:26:31.449Z,11.77
2023-05-05T23:28:59.103Z,10.77
2023-05-05T23:31:26.674Z,9.57
2023-05-05T23:33:54.232Z,9.50
2023-05-05T23:36:21.850Z,9.25
2023-05-05T23:38:49.406Z,8.98
2023-05-05T23:41:18.438Z,7.93
2023-05-05T23:43:45.949Z,7.68
2023-05-05T23:46:13.566Z,7.90
2023-05-05T23:48:41.404Z,7.67
2023-05-05T23:51:09.000Z,7.68
2023-05-05T23:53:36.562Z,7.57
2023-05-05T23:56:04.224Z,7.82
2023-05-05T23:58:31.993Z,8.37
